Time;durP1;ratioP1;P1;durP2;ratioP2;P2;SDS_P1;SDS_P2;PMS_P1;PMS_P2;Temp;Humidity;BMP_temperature;BMP_pressure;BME280_temperature;BME280_humidity;BME280_pressure;Samples;Min_cycle;Max_cycle;Signal;HPM_P1;HPM_P2
2022/09/19 00:01:36;;;;;;;;;;;;;;;;;;4329534;33;19952;-69
2022/09/19 00:04:02;;;;;;;;;;;;;;;;;;4324228;33;20025;-69
2022/09/19 00:06:27;;;;;;;;;;;;;;;;;;4317124;33;20006;-70
2022/09/19 00:08:52;;;;;;;;;;;;;;;;;;4317617;33;20355;-69
2022/09/19 00:11:19;;;;;;;;;;;;;;;;;;4328115;33;19989;-69
2022/09/19 00:13:45;;;;;;;;;;;;;;;;;;4318473;33;19936;-69
2022/09/19 00:16:10;;;;;;;;;;;;;;;;;;4318376;33;20236;-70
2022/09/19 00:18:35;;;;;;;;;;;;;;;;;;4326085;33;20305;-71
2022/09/19 00:21:00;;;;;;;;;;;;;;;;;;4320043;33;19940;-69
2022/09/19 00:26:09;;;;;;;;;;;;;;;;;;4318756;33;20270;-70
2022/09/19 00:28:34;;;;;;;;;;;;;;;;;;4318352;33;20310;-70
2022/09/19 00:31:00;;;;;;;;;;;;;;;;;;4318358;33;19978;-69
2022/09/19 00:33:28;;;;;;;;;;;;;;;;;;4318749;33;20019;-69
2022/09/19 00:35:54;;;;;;;;;;;;;;;;;;4329203;33;19964;-70
2022/09/19 00:38:32;;;;;;;;;;;;;;;;;;;;;
2022/09/19 01:00:33;;;;;;;;;;;;;;;;;;4302568;33;20404;-73
2022/09/19 01:03:29;;;;;;;;;;;;;;;;;;;;;
2022/09/19 01:05:56;;;;;;;;;;;;;;;;;;4298544;33;20331;-74
2022/09/19 01:08:28;;;;;;;;;;;;;;;;;;4301116;33;20050;-73
2022/09/19 01:11:11;;;;;;;;;;;;;;;;;;4300698;33;19979;-74
2022/09/19 01:13:40;;;;;;;;;;;;;;;;;;4306841;33;19975;-74
2022/09/19 01:16:05;;;;;;;;;;;;;;;;;;4332781;33;19974;-74
2022/09/19 01:18:30;;;;;;;;;;;;;;;;;;4332557;33;19943;-74
2022/09/19 01:20:55;;;;;;;;;;;;;;;;;;4332199;33;19958;-74
2022/09/19 01:23:24;;;;;;;;;;;;;;;;;;4331506;33;19971;-74
2022/09/19 01:25:50;;;;;;;;;;;;;;;;;;4332633;33;20356;-74
2022/09/19 01:28:20;;;;;;;;;;;;;;;;;;4331956;33;19985;-74
2022/09/19 01:31:16;;;;;;;;;;;;;;;;;;4333025;33;19984;-74
2022/09/19 01:33:34;;;;;;;;;;;;;;;;;;4332104;33;19993;-74
2022/09/19 01:36:04;;;;;;;;;;;;;;;;;;4332145;33;19973;-74
2022/09/19 01:38:37;;;;;;;;;;;;;;;;;;4332254;33;19943;-73
2022/09/19 01:41:07;;;;;;;;;;;;;;;;;;4332683;33;19949;-74
2022/09/19 01:43:32;;;;;;;;;;;;;;;;;;4332475;33;19939;-74
2022/09/19 01:45:57;;;;;;;;;;;;;;;;;;4331870;33;20302;-74
2022/09/19 01:48:23;;;;;;;;;;;;;;;;;;4330944;33;19974;-74
2022/09/19 01:50:48;;;;;;;;;;;;;;;;;;4332009;33;19954;-74
2022/09/19 01:53:13;;;;;;;;;;;;;;;;;;4332064;33;19966;-72
2022/09/19 01:55:57;;;;;;;;;;;;;;;;;;;;;
2022/09/19 01:58:26;;;;;;;;;;;;;;;;;;4331629;33;19940;-73
2022/09/19 02:00:51;;;;;;;;;;;;;;;;;;4333417;33;19993;-73
2022/09/19 02:03:16;;;;;;;;;;;;;;;;;;4331985;33;19989;-73
2022/09/19 02:05:42;;;;;;;;;;;;;;;;;;4330801;33;20013;-73
2022/09/19 02:08:08;;;;;;;;;;;;;;;;;;4331408;33;19954;-73
2022/09/19 02:10:33;;;;;;;;;;;;;;;;;;4331461;33;20348;-73
2022/09/19 02:12:58;;;;;;;;;;;;;;;;;;4331342;33;19986;-74
2022/09/19 02:15:25;;;;;;;;;;;;;;;;;;4331873;33;19939;-74
2022/09/19 02:17:51;;;;;;;;;;;;;;;;;;4331380;33;19939;-73
2022/09/19 02:20:16;;;;;;;;;;;;;;;;;;4331536;33;19958;-73
2022/09/19 02:22:43;;;;;;;;;;;;;;;;;;4331989;33;19935;-73
2022/09/19 02:30:54;;;;;;;;;;;;;;;;;;;;;
2022/09/19 02:33:30;;;;;;;;;;;;;;;;;;4317479;33;19944;-73
2022/09/19 02:35:55;;;;;;;;;;;;;;;;;;4330357;33;19934;-73
2022/09/19 02:38:23;;;;;;;;;;;;;;;;;;4331568;33;19954;-73
2022/09/19 02:46:22;;;;;;;;;;;;;;;;;;4331704;33;20037;-73
2022/09/19 02:48:47;;;;;;;;;;;;;;;;;;4331217;33;20331;-74
2022/09/19 02:51:15;;;;;;;;;;;;;;;;;;4331276;33;19975;-73
2022/09/19 02:53:41;;;;;;;;;;;;;;;;;;4332006;33;20272;-73
2022/09/19 02:56:06;;;;;;;;;;;;;;;;;;4331306;33;19947;-73
2022/09/19 02:58:31;;;;;;;;;;;;;;;;;;4330326;33;20355;-73
2022/09/19 03:00:56;;;;;;;;;;;;;;;;;;4331351;33;19950;-73
2022/09/19 03:06:06;;;;;;;;;;;;;;;;;;4331679;33;19962;-73
2022/09/19 03:08:35;;;;;;;;;;;;;;;;;;4330577;33;19939;-73
2022/09/19 03:11:00;;;;;;;;;;;;;;;;;;4331140;33;19949;-73
2022/09/19 03:13:26;;;;;;;;;;;;;;;;;;4330847;33;19939;-73
2022/09/19 03:15:53;;;;;;;;;;;;;;;;;;4331144;33;20271;-73
2022/09/19 03:18:21;;;;;;;;;;;;;;;;;;4330822;33;20326;-73
2022/09/19 03:20:46;;;;;;;;;;;;;;;;;;4331375;33;19966;-73
2022/09/19 03:23:12;;;;;;;;;;;;;;;;;;4331474;33;20335;-72
2022/09/19 03:25:37;;;;;;;;;;;;;;;;;;4330731;33;19997;-72
2022/09/19 03:28:06;;;;;;;;;;;;;;;;;;4331102;33;19947;-73
2022/09/19 03:33:17;;;;;;;;;;;;;;;;;;4329924;33;19949;-72
2022/09/19 03:35:42;;;;;;;;;;;;;;;;;;4330784;33;19943;-73
2022/09/19 03:38:08;;;;;;;;;;;;;;;;;;4330903;33;19978;-73
2022/09/19 03:40:33;;;;;;;;;;;;;;;;;;4330970;33;20336;-73
2022/09/19 03:42:58;;;;;;;;;;;;;;;;;;4330912;33;19951;-73
2022/09/19 03:45:24;;;;;;;;;;;;;;;;;;4331250;33;19966;-72
2022/09/19 03:47:49;;;;;;;;;;;;;;;;;;4331954;33;19986;-72
2022/09/19 03:50:14;;;;;;;;;;;;;;;;;;4330974;33;19939;-72
2022/09/19 03:52:40;;;;;;;;;;;;;;;;;;4331144;33;19970;-73
2022/09/19 03:55:06;;;;;;;;;;;;;;;;;;4331103;33;19974;-72
2022/09/19 03:57:32;;;;;;;;;;;;;;;;;;4330892;33;19990;-73
2022/09/19 03:59:57;;;;;;;;;;;;;;;;;;4330566;33;20018;-73
2022/09/19 04:02:22;;;;;;;;;;;;;;;;;;4330848;33;19944;-73
2022/09/19 04:04:47;;;;;;;;;;;;;;;;;;4332292;33;19939;-72
2022/09/19 04:07:15;;;;;;;;;;;;;;;;;;4332104;33;19993;-73
2022/09/19 04:09:40;;;;;;;;;;;;;;;;;;4333156;33;19943;-72
2022/09/19 04:12:05;;;;;;;;;;;;;;;;;;4333879;33;19935;-73
2022/09/19 04:14:31;;;;;;;;;;;;;;;;;;4332850;33;20304;-73
2022/09/19 04:16:56;;;;;;;;;;;;;;;;;;4332745;33;19954;-73
2022/09/19 04:19:32;;;;;;;;;;;;;;;;;;4333206;33;20298;-74
2022/09/19 04:21:59;;;;;;;;;;;;;;;;;;4333575;33;19935;-73
2022/09/19 04:24:26;;;;;;;;;;;;;;;;;;4334223;33;19985;-73
2022/09/19 04:26:51;;;;;;;;;;;;;;;;;;4332550;33;19946;-73
2022/09/19 04:29:18;;;;;;;;;;;;;;;;;;4333291;33;20347;-73
2022/09/19 04:31:43;;;;;;;;;;;;;;;;;;4332404;33;19943;-74
2022/09/19 04:34:08;;;;;;;;;;;;;;;;;;4332882;33;19957;-73
2022/09/19 04:37:18;;;;;;;;;;;;;;;;;;4334114;33;20022;-73
2022/09/19 04:39:19;;;;;;;;;;;;;;;;;;4331720;33;20265;-73
2022/09/19 04:41:45;;;;;;;;;;;;;;;;;;4333623;33;19946;-73
2022/09/19 04:44:10;;;;;;;;;;;;;;;;;;4332663;33;19990;-72
2022/09/19 04:46:35;;;;;;;;;;;;;;;;;;4332554;33;19950;-73
2022/09/19 04:49:00;;;;;;;;;;;;;;;;;;4333007;33;19974;-72
2022/09/19 04:51:26;;;;;;;;;;;;;;;;;;4333994;33;19934;-73
2022/09/19 04:53:55;;;;;;;;;;;;;;;;;;4333146;33;20002;-73
2022/09/19 04:56:20;;;;;;;;;;;;;;;;;;4332509;33;19935;-73
2022/09/19 04:58:45;;;;;;;;;;;;;;;;;;4332985;33;19943;-73
2022/09/19 05:01:11;;;;;;;;;;;;;;;;;;4332578;33;19935;-73
2022/09/19 05:03:36;;;;;;;;;;;;;;;;;;4331684;33;19969;-73
2022/09/19 05:06:02;;;;;;;;;;;;;;;;;;4333341;33;19949;-73
2022/09/19 05:08:27;;;;;;;;;;;;;;;;;;4332697;33;19969;-73
2022/09/19 05:10:58;;;;;;;;;;;;;;;;;;4332437;33;20318;-72
2022/09/19 05:13:23;;;;;;;;;;;;;;;;;;4332989;33;20042;-73
2022/09/19 05:15:50;;;;;;;;;;;;;;;;;;4333018;33;19939;-73
2022/09/19 05:18:19;;;;;;;;;;;;;;;;;;4331566;33;19953;-72
2022/09/19 05:20:44;;;;;;;;;;;;;;;;;;4331676;33;19979;-74
2022/09/19 05:23:09;;;;;;;;;;;;;;;;;;4332001;33;20290;-73
2022/09/19 05:25:34;;;;;;;;;;;;;;;;;;4332994;33;19947;-72
2022/09/19 05:28:05;;;;;;;;;;;;;;;;;;4332218;33;20368;-72
2022/09/19 05:30:32;;;;;;;;;;;;;;;;;;4332252;33;19939;-73
2022/09/19 05:32:57;;;;;;;;;;;;;;;;;;4332181;33;20306;-72
2022/09/19 05:35:23;;;;;;;;;;;;;;;;;;4331850;33;19946;-73
2022/09/19 05:37:48;;;;;;;;;;;;;;;;;;4332887;33;19972;-73
2022/09/19 05:40:13;;;;;;;;;;;;;;;;;;4342075;33;19974;-74
2022/09/19 05:45:34;;;;;;;;;;;;;;;;;;4340063;33;19943;-72
2022/09/19 05:48:03;;;;;;;;;;;;;;;;;;4346375;33;20310;-72
2022/09/19 05:50:28;;;;;;;;;;;;;;;;;;4332079;33;19946;-73
2022/09/19 07:34:57;;;;;;;;;;;;;;;;;;;;;
2022/09/19 09:19:03;;;;;;;;;;;;;;;;;;4287576;33;19943;-72
2022/09/19 09:21:29;;;;;;;;;;;;;;;;;;4286563;33;19991;-72
2022/09/19 10:24:43;;;;;;;;;;;;;;;;;;4264534;33;19941;-71
2022/09/19 10:31:09;;;;;;;;;;;;;;;;;;;;;
2022/09/19 10:57:45;;;;;;;;;;;;;;;;;;4229029;34;19945;-71
2022/09/19 11:05:40;;;;;;;;;;;;;;;;;;4312233;33;20313;-73
2022/09/19 11:16:07;;;;;;;;;;;;;;;;;;4308991;33;20377;-72
2022/09/19 11:18:32;;;;;;;;;;;;;;;;;;4308620;33;19989;-72
2022/09/19 11:21:07;;;;;;;;;;;;;;;;;;4315806;33;20361;-71
2022/09/19 11:23:35;;;;;;;;;;;;;;;;;;4332293;33;19943;-72
2022/09/19 11:26:03;;;;;;;;;;;;;;;;;;4330920;33;19947;-71
2022/09/19 11:28:28;;;;;;;;;;;;;;;;;;4332612;33;19940;-73
2022/09/19 11:31:05;;;;;;;;;;;;;;;;;;4321579;33;19974;-71
2022/09/19 11:33:38;;;;;;;;;;;;;;;;;;4327791;33;19951;-71
2022/09/19 11:36:07;;;;;;;;;;;;;;;;;;4333201;33;20321;-71
2022/09/19 11:38:41;;;;;;;;;;;;;;;;;;4332639;33;19997;-71
2022/09/19 11:41:07;;;;;;;;;;;;;;;;;;4332897;33;19958;-71
2022/09/19 11:43:42;;;;;;;;;;;;;;;;;;;;;
2022/09/19 11:46:08;;;;;;;;;;;;;;;;;;4323262;33;19985;-71
2022/09/19 11:48:44;;;;;;;;;;;;;;;;;;4328541;33;20334;-71
2022/09/19 11:51:28;;;;;;;;;;;;;;;;;;4316699;33;20342;-71
2022/09/19 11:53:53;;;;;;;;;;;;;;;;;;4330715;33;20022;-70
2022/09/19 11:56:27;;;;;;;;;;;;;;;;;;4332393;33;20008;-71
2022/09/19 11:58:53;;;;;;;;;;;;;;;;;;4332202;33;20007;-71
2022/09/19 12:01:21;;;;;;;;;;;;;;;;;;4332619;33;19939;-71
2022/09/19 12:06:48;;;;;;;;;;;;;;;;;;;;;
2022/09/19 12:12:13;;;;;;;;;;;;;;;;;;4316768;33;19995;-72
2022/09/19 12:20:07;;;;;;;;;;;;;;;;;;4301393;33;19968;-72
2022/09/19 12:22:32;;;;;;;;;;;;;;;;;;4294628;33;19987;-71
2022/09/19 12:25:01;;;;;;;;;;;;;;;;;;4318528;33;19985;-71
2022/09/19 12:27:26;;;;;;;;;;;;;;;;;;4332441;33;19986;-72
2022/09/19 12:29:51;;;;;;;;;;;;;;;;;;4333192;33;19943;-72
2022/09/19 12:32:16;;;;;;;;;;;;;;;;;;4331249;33;19981;-71
2022/09/19 12:34:42;;;;;;;;;;;;;;;;;;4332122;33;19994;-70
2022/09/19 12:37:07;;;;;;;;;;;;;;;;;;4332452;33;19943;-71
2022/09/19 12:42:17;;;;;;;;;;;;;;;;;;4333334;33;19973;-72
2022/09/19 12:44:42;;;;;;;;;;;;;;;;;;4331973;33;20305;-70
2022/09/19 12:47:08;;;;;;;;;;;;;;;;;;4331320;33;19952;-72
2022/09/19 12:58:03;;;;;;;;;;;;;;;;;;;;;
2022/09/19 13:00:29;;;;;;;;;;;;;;;;;;4301644;33;19950;-68
2022/09/19 13:02:56;;;;;;;;;;;;;;;;;;4307530;33;19935;-71
2022/09/19 13:05:22;;;;;;;;;;;;;;;;;;4333248;33;20302;-70
2022/09/19 13:07:47;;;;;;;;;;;;;;;;;;4332522;33;19961;-67
2022/09/19 13:10:12;;;;;;;;;;;;;;;;;;4332726;33;19939;-71
2022/09/19 13:12:38;;;;;;;;;;;;;;;;;;4332670;33;20265;-70
2022/09/19 13:15:05;;;;;;;;;;;;;;;;;;4331977;33;19947;-70
2022/09/19 13:25:53;;;;;;;;;;;;;;;;;;4331587;33;19978;-71
2022/09/19 13:28:19;;;;;;;;;;;;;;;;;;4329231;33;20034;-74
2022/09/19 13:30:48;;;;;;;;;;;;;;;;;;4330071;33;20063;-72
2022/09/19 13:33:13;;;;;;;;;;;;;;;;;;4330822;33;19967;-72
2022/09/19 13:35:40;;;;;;;;;;;;;;;;;;4322628;33;19943;-71
2022/09/19 13:38:05;;;;;;;;;;;;;;;;;;4328449;33;20038;-73
2022/09/19 13:40:31;;;;;;;;;;;;;;;;;;4326782;33;19958;-69
2022/09/19 13:42:56;;;;;;;;;;;;;;;;;;4328672;33;19958;-71
2022/09/19 13:45:22;;;;;;;;;;;;;;;;;;4330614;33;19955;-71
2022/09/19 13:47:47;;;;;;;;;;;;;;;;;;4328564;33;20034;-71
2022/09/19 13:50:13;;;;;;;;;;;;;;;;;;4331643;33;19947;-69
2022/09/19 13:52:39;;;;;;;;;;;;;;;;;;4330711;33;19945;-69
2022/09/19 13:55:04;;;;;;;;;;;;;;;;;;4330906;33;19951;-73
2022/09/19 13:57:30;;;;;;;;;;;;;;;;;;4332125;33;20322;-75
2022/09/19 13:59:58;;;;;;;;;;;;;;;;;;4331272;33;19984;-74
2022/09/19 14:02:23;;;;;;;;;;;;;;;;;;4330990;33;19954;-74
2022/09/19 14:04:56;;;;;;;;;;;;;;;;;;4331031;33;19959;-75
2022/09/19 14:07:23;;;;;;;;;;;;;;;;;;4330773;33;19943;-73
2022/09/19 14:09:49;;;;;;;;;;;;;;;;;;4331094;33;19999;-75
2022/09/19 14:12:14;;;;;;;;;;;;;;;;;;4331392;33;19943;-75
2022/09/19 14:14:57;;;;;;;;;;;;;;;;;;4329421;33;20280;-73
2022/09/19 14:17:22;;;;;;;;;;;;;;;;;;4329984;33;19983;-75
2022/09/19 14:19:53;;;;;;;;;;;;;;;;;;4327375;33;20001;-74
2022/09/19 14:22:18;;;;;;;;;;;;;;;;;;4325869;33;20047;-74
2022/09/19 14:24:43;;;;;;;;;;;;;;;;;;4330976;33;20005;-69
2022/09/19 14:27:08;;;;;;;;;;;;;;;;;;4331043;33;20322;-73
2022/09/19 14:29:33;;;;;;;;;;;;;;;;;;4327990;33;19939;-71
2022/09/19 14:31:58;;;;;;;;;;;;;;;;;;4324219;33;19944;-69
2022/09/19 14:34:23;;;;;;;;;;;;;;;;;;4331503;33;19944;-71
2022/09/19 14:36:51;;;;;;;;;;;;;;;;;;4330064;33;19979;-72
2022/09/19 14:39:16;;;;;;;;;;;;;;;;;;4322174;33;19957;-74
2022/09/19 14:41:41;;;;;;;;;;;;;;;;;;4331049;33;19947;-72
2022/09/19 14:44:06;;;;;;;;;;;;;;;;;;4330184;33;20105;-72
2022/09/19 14:46:32;;;;;;;;;;;;;;;;;;4320996;33;19948;-67
2022/09/19 14:48:57;;;;;;;;;;;;;;;;;;4327897;33;20228;-73
2022/09/19 14:51:24;;;;;;;;;;;;;;;;;;4323425;33;20070;-72
2022/09/19 14:53:49;;;;;;;;;;;;;;;;;;4330256;33;19974;-71
2022/09/19 14:56:14;;;;;;;;;;;;;;;;;;4330296;33;20010;-71
2022/09/19 14:58:39;;;;;;;;;;;;;;;;;;4329436;33;19970;-72
2022/09/19 15:01:06;;;;;;;;;;;;;;;;;;4328461;33;19994;-71
2022/09/19 15:03:31;;;;;;;;;;;;;;;;;;4328677;33;20277;-73
2022/09/19 15:05:56;;;;;;;;;;;;;;;;;;4329465;33;20022;-72
2022/09/19 15:08:21;;;;;;;;;;;;;;;;;;4329921;33;19951;-71
2022/09/19 15:10:47;;;;;;;;;;;;;;;;;;4329011;33;20001;-72
2022/09/19 15:13:13;;;;;;;;;;;;;;;;;;4329983;33;20391;-72
2022/09/19 15:15:38;;;;;;;;;;;;;;;;;;4331741;33;19943;-71
2022/09/19 15:18:03;;;;;;;;;;;;;;;;;;4331096;33;19978;-73
2022/09/19 15:20:29;;;;;;;;;;;;;;;;;;4330927;33;19935;-71
2022/09/19 15:22:55;;;;;;;;;;;;;;;;;;4330205;33;20003;-70
2022/09/19 15:25:21;;;;;;;;;;;;;;;;;;4329225;33;19931;-71
2022/09/19 15:27:46;;;;;;;;;;;;;;;;;;4330199;33;19938;-70
2022/09/19 15:30:12;;;;;;;;;;;;;;;;;;4330605;33;19935;-71
2022/09/19 15:32:39;;;;;;;;;;;;;;;;;;4330576;33;19943;-72
2022/09/19 15:35:05;;;;;;;;;;;;;;;;;;4330425;33;19986;-71
2022/09/19 15:37:31;;;;;;;;;;;;;;;;;;4330153;33;19939;-71
2022/09/19 15:39:56;;;;;;;;;;;;;;;;;;4330719;33;19967;-67
2022/09/19 15:42:21;;;;;;;;;;;;;;;;;;4331389;33;19935;-70
2022/09/19 15:44:46;;;;;;;;;;;;;;;;;;4329891;33;19946;-70
2022/09/19 15:47:12;;;;;;;;;;;;;;;;;;4328240;33;19939;-70
2022/09/19 15:49:38;;;;;;;;;;;;;;;;;;4326790;33;19950;-69
2022/09/19 15:52:04;;;;;;;;;;;;;;;;;;4328384;33;19939;-71
2022/09/19 15:54:30;;;;;;;;;;;;;;;;;;4325624;33;19989;-71
2022/09/19 15:56:55;;;;;;;;;;;;;;;;;;4328721;33;20021;-72
2022/09/19 15:59:20;;;;;;;;;;;;;;;;;;4328305;33;19943;-71
2022/09/19 16:01:46;;;;;;;;;;;;;;;;;;4325966;33;20005;-68
2022/09/19 16:04:11;;;;;;;;;;;;;;;;;;4332867;33;19951;-69
2022/09/19 16:09:24;;;;;;;;;;;;;;;;;;4324706;33;20024;-72
2022/09/19 16:11:50;;;;;;;;;;;;;;;;;;4320814;33;19983;-71
2022/09/19 16:14:15;;;;;;;;;;;;;;;;;;4330526;33;19954;-69
2022/09/19 16:16:40;;;;;;;;;;;;;;;;;;4334812;33;20015;-70
2022/09/19 16:19:05;;;;;;;;;;;;;;;;;;4332399;33;20293;-69
2022/09/19 16:21:31;;;;;;;;;;;;;;;;;;4332296;33;19935;-68
2022/09/19 16:23:56;;;;;;;;;;;;;;;;;;4332665;33;19939;-71
2022/09/19 16:26:21;;;;;;;;;;;;;;;;;;4331667;33;19950;-71
2022/09/19 16:28:46;;;;;;;;;;;;;;;;;;4330103;33;19935;-71
2022/09/19 16:31:11;;;;;;;;;;;;;;;;;;4331683;33;20333;-70
2022/09/19 16:34:44;;;;;;;10.48;2.37;;;;;;;;;;4455983;32;20068;-71
2022/09/19 16:37:36;;;;;;;10.20;2.53;;;;;;;;;;4414353;32;20034;-68
2022/09/19 16:40:04;;;;;;;8.52;1.65;;;;;;;;;;4428148;32;20095;-72
2022/09/19 16:42:33;;;;;;;12.32;2.85;;;;;;;;;;4430817;32;20018;-70
2022/09/19 16:45:16;;;;;;;11.43;1.80;;;;;;;;;;4434445;32;20336;-71
2022/09/19 16:47:43;;;;;;;11.68;2.17;;;;;;;;;;4437189;32;20182;-69
2022/09/19 16:50:09;;;;;;;7.87;2.22;;;;;;;;;;4435570;32;20112;-70
2022/09/19 16:52:35;;;;;;;7.95;2.58;;;;;;;;;;4446763;32;20059;-66
2022/09/19 16:55:03;;;;;;;10.15;2.47;;;;;;;;;;4439246;32;20030;-70
2022/09/19 16:57:29;;;;;;;16.52;2.10;;;;;;;;;;4433184;32;20097;-72
2022/09/19 16:59:55;;;;;;;10.25;1.80;;;;;;;;;;4432944;32;20025;-69
2022/09/19 17:02:27;;;;;;;10.40;2.47;;;;;;;;;;4434312;32;20052;-70
2022/09/19 17:04:53;;;;;;;10.40;2.22;;;;;;;;;;4433306;32;20033;-71
2022/09/19 17:07:20;;;;;;;7.25;1.80;;;;;;;;;;4432949;32;20460;-71
2022/09/19 17:09:47;;;;;;;6.95;1.92;;;;;;;;;;4433225;32;20112;-70
2022/09/19 17:12:12;;;;;;;11.30;2.75;;;;;;;;;;4432996;32;20329;-69
2022/09/19 17:14:38;;;;;;;18.25;3.03;;;;;;;;;;4433992;32;20026;-70
2022/09/19 17:17:03;;;;;;;13.43;2.95;;;;;;;;;;4435089;32;20071;-72
2022/09/19 17:19:28;;;;;;;11.32;1.85;;;;;;;;;;4434296;32;20371;-71
2022/09/19 17:21:54;;;;;;;14.13;2.83;;;;;;;;;;4432785;32;20021;-70
2022/09/19 17:24:19;;;;;;;12.40;3.67;;;;;;;;;;4441623;32;20505;-72
2022/09/19 17:26:45;;;;;;;14.50;2.40;;;;;;;;;;4435681;32;20382;-70
2022/09/19 17:29:10;;;;;;;18.20;2.83;;;;;;;;;;4445229;32;20030;-72
2022/09/19 17:31:36;;;;;;;10.77;2.35;;;;;;;;;;4438282;32;20415;-72
2022/09/19 17:34:06;;;;;;;14.63;2.45;;;;;;;;;;4432384;32;20501;-71
2022/09/19 17:36:31;;;;;;;6.90;1.95;;;;;;;;;;4432731;32;20052;-71
2022/09/19 17:38:56;;;;;;;12.77;2.60;;;;;;;;;;4433576;32;20038;-71
2022/09/19 17:41:22;;;;;;;8.95;2.08;;;;;;;;;;4440884;32;20088;-73
2022/09/19 17:43:47;;;;;;;10.68;3.10;;;;;;;;;;4445756;32;20424;-71
2022/09/19 17:46:14;;;;;;;9.02;1.95;;;;;;;;;;4439616;32;20364;-70
2022/09/19 17:48:39;;;;;;;10.63;2.42;;;;;;;;;;4438934;32;20082;-70
2022/09/19 17:51:08;;;;;;;11.95;2.28;;;;;;;;;;4424800;32;20030;-70
2022/09/19 17:53:34;;;;;;;14.77;3.22;;;;;;;;;;4422383;32;20027;-71
2022/09/19 17:56:09;;;;;;;9.73;2.30;;;;;;;;;;4431061;32;20412;-69
2022/09/19 17:58:34;;;;;;;9.63;2.30;;;;;;;;;;4422765;32;20385;-69
2022/09/19 18:03:16;;;;;;;11.25;2.67;;;;;;;;;;4422203;32;20083;-69
2022/09/19 18:03:46;;;;;;;9.38;2.50;;;;;;;;;;4433241;32;20057;-70
2022/09/19 18:06:12;;;;;;;12.50;4.15;;;;;;;;;;4423055;32;20049;-71
2022/09/19 18:08:37;;;;;;;13.62;2.62;;;;;;;;;;4431540;32;20052;-70
2022/09/19 18:11:03;;;;;;;14.80;2.85;;;;;;;;;;4424501;32;20045;-71
2022/09/19 18:13:35;;;;;;;10.80;2.53;;;;;;;;;;4420244;32;20322;-70
2022/09/19 18:16:01;;;;;;;12.07;2.85;;;;;;;;;;4423054;32;20022;-70
2022/09/19 18:18:27;;;;;;;11.07;3.25;;;;;;;;;;4422427;32;20428;-70
2022/09/19 18:20:56;;;;;;;12.48;3.87;;;;;;;;;;4422653;32;20060;-70
2022/09/19 18:23:22;;;;;;;15.27;4.60;;;;;;;;;;4421738;32;20077;-70
2022/09/19 18:25:47;;;;;;;14.25;3.55;;;;;;;;;;4422013;32;20325;-69
2022/09/19 18:28:12;;;;;;;16.83;4.03;;;;;;;;;;4421465;32;20094;-71
2022/09/19 18:30:39;;;;;;;12.77;3.53;;;;;;;;;;4422029;32;20412;-70
2022/09/19 18:33:04;;;;;;;14.93;3.58;;;;;;;;;;4430085;32;20428;-69
2022/09/19 18:35:29;;;;;;;12.77;2.92;;;;;;;;;;4437017;32;20080;-70
2022/09/19 18:37:55;;;;;;;11.02;2.62;;;;;;;;;;4437132;32;20025;-70
2022/09/19 18:40:20;;;;;;;14.82;3.50;;;;;;;;;;4437537;32;20464;-71
2022/09/19 18:42:45;;;;;;;12.23;3.17;;;;;;;;;;4437595;32;20074;-70
2022/09/19 18:45:11;;;;;;;11.43;3.03;;;;;;;;;;4436379;32;20044;-70
2022/09/19 18:47:38;;;;;;;13.75;3.87;;;;;;;;;;4437982;32;20033;-70
2022/09/19 18:50:03;;;;;;;14.87;3.80;;;;;;;;;;4437715;32;20396;-69
2022/09/19 18:52:29;;;;;;;10.68;2.87;;;;;;;;;;4436376;32;20045;-70
2022/09/19 18:54:54;;;;;;;8.57;2.92;;;;;;;;;;4436712;32;20025;-71
2022/09/19 18:57:20;;;;;;;7.72;2.80;;;;;;;;;;4436976;32;20453;-69
2022/09/19 18:59:45;;;;;;;11.43;2.90;;;;;;;;;;4432360;32;20044;-70
2022/09/19 19:02:10;;;;;;;9.13;2.40;;;;;;;;;;4420058;32;20034;-70
2022/09/19 19:04:35;;;;;;;11.20;2.53;;;;;;;;;;4421325;32;20042;-70
2022/09/19 19:07:01;;;;;;;11.38;3.60;;;;;;;;;;4420024;32;20060;-69
2022/09/19 19:09:26;;;;;;;;;;;;;;;;;;4422069;32;20059;-69
2022/09/19 19:11:51;;;;;;;9.27;2.90;;;;;;;;;;4421223;32;19956;-70
2022/09/19 19:14:17;;;;;;;14.18;3.42;;;;;;;;;;4422835;32;20030;-70
2022/09/19 19:16:42;;;;;;;16.85;3.15;;;;;;;;;;4422203;32;20439;-70
2022/09/19 19:19:09;;;;;;;12.85;2.85;;;;;;;;;;4427330;32;20391;-70
2022/09/19 19:21:36;;;;;;;14.87;2.97;;;;;;;;;;4436646;32;20052;-70
2022/09/19 19:24:02;;;;;;;11.82;2.92;;;;;;;;;;4437615;32;20424;-70
2022/09/19 19:26:28;;;;;;;11.20;2.80;;;;;;;;;;4436498;32;20030;-69
2022/09/19 19:28:54;;;;;;;13.48;3.33;;;;;;;;;;4423349;32;20092;-70
2022/09/19 19:31:19;;;;;;;8.38;2.30;;;;;;;;;;4421065;32;20049;-70
2022/09/19 19:33:46;;;;;;;14.65;3.10;;;;;;;;;;4421324;32;20038;-70
2022/09/19 19:36:13;;;;;;;15.38;2.70;;;;;;;;;;4421539;32;20573;-70
2022/09/19 19:38:39;;;;;;;10.98;3.20;;;;;;;;;;4420836;32;20136;-70
2022/09/19 19:41:05;;;;;;;13.88;2.87;;;;;;;;;;4421946;32;20425;-70
2022/09/19 19:43:31;;;;;;;11.12;3.20;;;;;;;;;;4428426;32;20104;-70
2022/09/19 19:46:01;;;;;;;9.77;2.50;;;;;;;;;;4424826;32;20075;-70
2022/09/19 19:48:27;;;;;;;15.93;3.65;;;;;;;;;;4427839;32;20034;-70
2022/09/19 19:50:58;;;;;;;13.40;3.20;;;;;;;;;;4426251;32;20065;-72
2022/09/19 19:53:23;;;;;;;10.32;3.20;;;;;;;;;;4426226;32;20053;-70
2022/09/19 19:55:49;;;;;;;9.25;2.33;;;;;;;;;;4426860;32;20057;-71
2022/09/19 19:58:14;;;;;;;8.80;2.37;;;;;;;;;;4425982;32;20052;-71
2022/09/19 20:00:40;;;;;;;15.18;3.05;;;;;;;;;;4426472;32;20117;-71
2022/09/19 20:03:05;;;;;;;13.13;2.78;;;;;;;;;;4426528;32;20053;-71
2022/09/19 20:05:30;;;;;;;11.95;2.22;;;;;;;;;;4427512;32;20068;-71
2022/09/19 20:07:55;;;;;;;9.23;2.60;;;;;;;;;;4426759;32;20067;-70
2022/09/19 20:10:22;;;;;;;8.13;2.50;;;;;;;;;;4425027;32;20056;-70
2022/09/19 20:12:47;;;;;;;8.88;2.30;;;;;;;;;;4426295;32;20029;-70
2022/09/19 20:15:13;;;;;;;6.03;2.10;;;;;;;;;;4426947;32;20038;-69
2022/09/19 20:17:38;;;;;;;;;;;;;;;;;;4426388;32;20111;-73
2022/09/19 20:20:03;;;;;;;8.75;2.30;;;;;;;;;;4425388;32;19940;-71
2022/09/19 20:22:28;;;;;;;;;;;;;;;;;;4426676;32;20026;-70
2022/09/19 20:24:54;;;;;;;6.18;2.00;;;;;;;;;;4425208;32;19938;-71
2022/09/19 20:27:19;;;;;;;11.75;3.12;;;;;;;;;;4426031;32;20156;-71
2022/09/19 20:29:45;;;;;;;6.32;1.73;;;;;;;;;;4425910;32;20403;-70
2022/09/19 20:32:11;;;;;;;9.13;2.05;;;;;;;;;;4423740;32;20042;-70
2022/09/19 20:34:36;;;;;;;6.70;2.35;;;;;;;;;;4422298;32;20037;-70
2022/09/19 20:37:01;;;;;;;;;;;;;;;;;;4419537;32;20388;-70
2022/09/19 20:39:27;;;;;;;12.57;2.55;;;;;;;;;;4419642;32;19945;-70
2022/09/19 20:41:52;;;;;;;10.10;2.55;;;;;;;;;;4421060;32;20084;-71
2022/09/19 20:44:18;;;;;;;10.25;2.33;;;;;;;;;;4420723;32;20045;-70
2022/09/19 20:46:44;;;;;;;8.27;2.10;;;;;;;;;;4420184;32;20087;-71
2022/09/19 20:49:09;;;;;;;7.50;2.28;;;;;;;;;;4420824;32;20026;-72
2022/09/19 20:51:36;;;;;;;;;;;;;;;;;;4419226;32;20048;-70
2022/09/19 20:54:03;;;;;;;10.55;3.30;;;;;;;;;;4434528;32;19937;-71
2022/09/19 20:56:28;;;;;;;7.37;2.55;;;;;;;;;;4435294;32;20021;-70
2022/09/19 20:58:55;;;;;;;7.72;2.40;;;;;;;;;;4435599;32;20109;-70
2022/09/19 21:01:21;;;;;;;8.43;2.10;;;;;;;;;;4436023;32;20331;-70
2022/09/19 21:03:46;;;;;;;12.13;3.40;;;;;;;;;;4435495;32;20029;-67
2022/09/19 21:06:11;;;;;;;9.00;2.28;;;;;;;;;;4435815;32;20116;-71
2022/09/19 21:08:39;;;;;;;9.70;2.42;;;;;;;;;;4422241;32;20487;-70
2022/09/19 21:11:12;;;;;;;8.35;2.08;;;;;;;;;;4419922;32;20379;-71
2022/09/19 21:13:38;;;;;;;6.47;2.60;;;;;;;;;;4421427;32;20042;-70
2022/09/19 21:16:04;;;;;;;9.60;2.40;;;;;;;;;;4420753;32;20053;-70
2022/09/19 21:18:30;;;;;;;4.70;1.42;;;;;;;;;;4420276;32;20022;-70
2022/09/19 21:21:02;;;;;;;6.53;2.20;;;;;;;;;;4432398;32;20044;-71
2022/09/19 21:23:28;;;;;;;7.07;1.75;;;;;;;;;;4438785;32;20085;-71
2022/09/19 21:25:57;;;;;;;6.18;1.80;;;;;;;;;;4433943;32;20026;-70
2022/09/19 21:28:22;;;;;;;7.32;2.10;;;;;;;;;;4424108;32;20405;-70
2022/09/19 21:30:48;;;;;;;6.22;1.65;;;;;;;;;;4424818;32;20025;-70
2022/09/19 21:33:13;;;;;;;5.70;1.50;;;;;;;;;;4422911;32;20034;-70
2022/09/19 21:35:38;;;;;;;;;;;;;;;;;;4423202;32;20022;-70
2022/09/19 21:38:04;;;;;;;7.63;1.63;;;;;;;;;;4423762;32;20349;-70
2022/09/19 21:40:29;;;;;;;8.75;1.83;;;;;;;;;;4425973;32;20159;-70
2022/09/19 21:42:54;;;;;;;8.60;1.60;;;;;;;;;;4437427;32;20360;-70
2022/09/19 21:45:19;;;;;;;5.62;1.83;;;;;;;;;;4436813;32;20029;-70
2022/09/19 21:47:47;;;;;;;10.18;2.28;;;;;;;;;;4436584;32;20018;-70
2022/09/19 21:50:12;;;;;;;6.00;1.65;;;;;;;;;;4437989;32;20125;-70
2022/09/19 21:52:37;;;;;;;13.68;2.03;;;;;;;;;;4431035;32;20438;-71
2022/09/19 21:55:02;;;;;;;10.55;2.08;;;;;;;;;;4422785;32;20087;-70
2022/09/19 21:57:28;;;;;;;5.00;1.48;;;;;;;;;;4422362;32;20049;-70
2022/09/19 21:59:53;;;;;;;;;;;;;;;;;;4423884;32;20086;-71
2022/09/19 22:02:18;;;;;;;6.43;1.35;;;;;;;;;;4422347;32;19947;-70
2022/09/19 22:04:43;;;;;;;;;;;;;;;;;;4424207;32;20117;-70
2022/09/19 22:07:08;;;;;;;9.85;2.03;;;;;;;;;;4428007;32;19987;-71
2022/09/19 22:09:34;;;;;;;9.40;1.75;;;;;;;;;;4438129;32;20045;-70
2022/09/19 22:11:59;;;;;;;;;;;;;;;;;;4438298;32;20400;-70
2022/09/19 22:14:24;;;;;;;7.18;1.58;;;;;;;;;;4436213;32;20300;-71
2022/09/19 22:16:49;;;;;;;6.20;2.20;;;;;;;;;;4437464;32;20041;-71
2022/09/19 22:19:15;;;;;;;;;;;;;;;;;;4437832;32;20025;-71
2022/09/19 22:21:41;;;;;;;7.60;1.95;;;;;;;;;;4437591;32;19941;-72
2022/09/19 22:24:06;;;;;;;7.93;2.12;;;;;;;;;;4438914;32;20089;-70